sensor_id;sensor_type;location;lat;lon;timestamp;pressure;altitude;pressure_sealevel;temperature;humidity
7376;BME280;3728;42.266;24.944;2023-04-06T00:01:57;99294.34;;;4.30;74.02
7376;BME280;3728;42.266;24.944;2023-04-06T00:04:25;99294.16;;;4.06;75.92
7376;BME280;3728;42.266;24.944;2023-04-06T00:06:53;99286.38;;;4.16;74.52
7376;BME280;3728;42.266;24.944;2023-04-06T00:09:20;99296.22;;;4.19;74.84
7376;BME280;3728;42.266;24.944;2023-04-06T00:11:48;99290.78;;;4.05;75.14
7376;BME280;3728;42.266;24.944;2023-04-06T00:14:16;99285.09;;;4.08;75.51
7376;BME280;3728;42.266;24.944;2023-04-06T00:16:44;99287.69;;;4.03;75.53
7376;BME280;3728;42.266;24.944;2023-04-06T00:19:11;99279.16;;;3.98;74.87
7376;BME280;3728;42.266;24.944;2023-04-06T00:21:39;99283.84;;;3.76;76.26
7376;BME280;3728;42.266;24.944;2023-04-06T00:24:07;99278.41;;;3.77;75.99
7376;BME280;3728;42.266;24.944;2023-04-06T00:26:34;99275.78;;;3.87;76.37
7376;BME280;3728;42.266;24.944;2023-04-06T00:29:02;99280.47;;;3.90;75.78
7376;BME280;3728;42.266;24.944;2023-04-06T00:31:29;99279.44;;;3.76;76.65
7376;BME280;3728;42.266;24.944;2023-04-06T00:33:58;99265.72;;;3.81;76.68
7376;BME280;3728;42.266;24.944;2023-04-06T00:36:26;99276.84;;;3.76;76.49
7376;BME280;3728;42.266;24.944;2023-04-06T00:38:53;99273.47;;;3.71;77.55
7376;BME280;3728;42.266;24.944;2023-04-06T00:41:21;99280.75;;;3.74;76.74
7376;BME280;3728;42.266;24.944;2023-04-06T00:43:49;99282.28;;;3.44;78.51
7376;BME280;3728;42.266;24.944;2023-04-06T00:46:16;99272.47;;;3.26;79.33
7376;BME280;3728;42.266;24.944;2023-04-06T00:48:44;99270.91;;;3.30;81.12
7376;BME280;3728;42.266;24.944;2023-04-06T00:51:11;99270.38;;;3.08;82.16
7376;BME280;3728;42.266;24.944;2023-04-06T00:53:39;99269.84;;;3.01;81.84
7376;BME280;3728;42.266;24.944;2023-04-06T00:56:09;99272.69;;;3.30;81.13
7376;BME280;3728;42.266;24.944;2023-04-06T00:58:47;99271.41;;;3.22;81.38
7376;BME280;3728;42.266;24.944;2023-04-06T01:01:15;99275.53;;;3.18;81.13
7376;BME280;3728;42.266;24.944;2023-04-06T01:03:44;99270.09;;;3.10;80.77
7376;BME280;3728;42.266;24.944;2023-04-06T01:06:16;99262.06;;;3.06;81.18
7376;BME280;3728;42.266;24.944;2023-04-06T01:08:51;99264.69;;;3.16;80.54
7376;BME280;3728;42.266;24.944;2023-04-06T01:11:21;99274.00;;;3.32;79.91
7376;BME280;3728;42.266;24.944;2023-04-06T01:13:50;99265.22;;;3.33;79.71
7376;BME280;3728;42.266;24.944;2023-04-06T01:16:41;99271.41;;;3.32;79.17
7376;BME280;3728;42.266;24.944;2023-04-06T01:19:18;99274.25;;;3.16;80.83
7376;BME280;3728;42.266;24.944;2023-04-06T01:21:50;99261.84;;;3.33;79.67
7376;BME280;3728;42.266;24.944;2023-04-06T01:24:40;99266.22;;;3.27;80.59
7376;BME280;3728;42.266;24.944;2023-04-06T01:27:13;99264.94;;;3.10;80.95
7376;BME280;3728;42.266;24.944;2023-04-06T01:30:01;99255.63;;;2.99;82.05
7376;BME280;3728;42.266;24.944;2023-04-06T01:32:46;99256.09;;;2.91;82.45
7376;BME280;3728;42.266;24.944;2023-04-06T01:35:18;99252.25;;;3.08;82.14
7376;BME280;3728;42.266;24.944;2023-04-06T01:37:57;99252.00;;;3.05;81.81
7376;BME280;3728;42.266;24.944;2023-04-06T01:40:29;99240.59;;;2.96;82.59
7376;BME280;3728;42.266;24.944;2023-04-06T01:42:57;99246.06;;;3.14;81.98
7376;BME280;3728;42.266;24.944;2023-04-06T01:45:33;99240.88;;;3.19;81.28
7376;BME280;3728;42.266;24.944;2023-04-06T01:48:11;99237.75;;;3.27;80.94
7376;BME280;3728;42.266;24.944;2023-04-06T01:50:41;99227.19;;;3.34;79.99
7376;BME280;3728;42.266;24.944;2023-04-06T01:53:12;99235.69;;;3.34;80.22
7376;BME280;3728;42.266;24.944;2023-04-06T01:55:42;99233.63;;;3.16;80.71
7376;BME280;3728;42.266;24.944;2023-04-06T01:58:21;99228.97;;;3.28;80.35
7376;BME280;3728;42.266;24.944;2023-04-06T02:00:49;99229.25;;;3.32;79.54
7376;BME280;3728;42.266;24.944;2023-04-06T02:03:17;99232.59;;;3.42;79.38
7376;BME280;3728;42.266;24.944;2023-04-06T02:05:45;99231.03;;;3.11;80.34
7376;BME280;3728;42.266;24.944;2023-04-06T02:08:22;99227.91;;;2.89;81.28
7376;BME280;3728;42.266;24.944;2023-04-06T02:10:50;99223.28;;;2.96;81.35
7376;BME280;3728;42.266;24.944;2023-04-06T02:13:26;99226.63;;;3.02;80.66
7376;BME280;3728;42.266;24.944;2023-04-06T02:15:57;99227.16;;;3.04;79.98
7376;BME280;3728;42.266;24.944;2023-04-06T02:18:30;99225.09;;;3.21;79.96
7376;BME280;3728;42.266;24.944;2023-04-06T02:20:58;99231.56;;;3.28;79.35
7376;BME280;3728;42.266;24.944;2023-04-06T02:23:25;99230.00;;;3.12;79.51
7376;BME280;3728;42.266;24.944;2023-04-06T02:25:53;99230.81;;;3.18;79.32
7376;BME280;3728;42.266;24.944;2023-04-06T02:28:21;99234.16;;;3.33;78.74
7376;BME280;3728;42.266;24.944;2023-04-06T02:30:48;99233.88;;;3.10;80.25
7376;BME280;3728;42.266;24.944;2023-04-06T02:33:17;99233.88;;;2.90;80.71
7376;BME280;3728;42.266;24.944;2023-04-06T02:35:46;99230.28;;;3.06;80.50
7376;BME280;3728;42.266;24.944;2023-04-06T02:38:14;99226.63;;;3.02;80.65
7376;BME280;3728;42.266;24.944;2023-04-06T02:40:41;99230.25;;;3.01;80.76
7376;BME280;3728;42.266;24.944;2023-04-06T02:43:19;99233.63;;;3.16;79.84
7376;BME280;3728;42.266;24.944;2023-04-06T02:45:49;99234.94;;;3.24;79.76
7376;BME280;3728;42.266;24.944;2023-04-06T02:48:19;99236.75;;;3.33;78.97
7376;BME280;3728;42.266;24.944;2023-04-06T02:50:47;99236.47;;;3.40;78.93
7376;BME280;3728;42.266;24.944;2023-04-06T02:53:14;99238.31;;;3.29;78.65
7376;BME280;3728;42.266;24.944;2023-04-06T02:55:42;99238.28;;;3.39;77.83
7376;BME280;3728;42.266;24.944;2023-04-06T02:58:10;99238.53;;;3.63;77.65
7376;BME280;3728;42.266;24.944;2023-04-06T03:00:44;99236.72;;;3.59;76.82
7376;BME280;3728;42.266;24.944;2023-04-06T03:03:11;99233.13;;;3.24;78.70
7376;BME280;3728;42.266;24.944;2023-04-06T03:05:41;99236.22;;;3.31;78.43
7376;BME280;3728;42.266;24.944;2023-04-06T03:08:09;99241.94;;;3.38;80.32
7376;BME280;3728;42.266;24.944;2023-04-06T03:10:44;99249.69;;;3.43;79.65
7376;BME280;3728;42.266;24.944;2023-04-06T03:13:13;99240.88;;;3.60;79.45
7376;BME280;3728;42.266;24.944;2023-04-06T03:15:44;99252.25;;;3.69;78.43
7376;BME280;3728;42.266;24.944;2023-04-06T03:18:20;99247.34;;;3.37;78.02
7376;BME280;3728;42.266;24.944;2023-04-06T03:20:51;99249.66;;;3.74;76.54
7376;BME280;3728;42.266;24.944;2023-04-06T03:23:23;99252.81;;;3.56;77.58
7376;BME280;3728;42.266;24.944;2023-04-06T03:25:56;99243.19;;;3.51;77.12
7376;BME280;3728;42.266;24.944;2023-04-06T03:28:23;99248.63;;;3.34;78.54
7376;BME280;3728;42.266;24.944;2023-04-06T03:31:00;99243.19;;;3.01;79.90
7376;BME280;3728;42.266;24.944;2023-04-06T03:33:46;99247.84;;;3.14;80.43
7376;BME280;3728;42.266;24.944;2023-04-06T03:36:35;99249.41;;;3.35;80.36
7376;BME280;3728;42.266;24.944;2023-04-06T03:39:03;99247.38;;;3.32;80.77
7376;BME280;3728;42.266;24.944;2023-04-06T03:41:34;99252.28;;;3.33;80.70
7376;BME280;3728;42.266;24.944;2023-04-06T03:44:21;99246.03;;;3.34;81.45
7376;BME280;3728;42.266;24.944;2023-04-06T03:46:49;99255.88;;;3.68;81.17
7376;BME280;3728;42.266;24.944;2023-04-06T03:49:17;99256.16;;;3.56;80.89
7376;BME280;3728;42.266;24.944;2023-04-06T03:51:48;99252.28;;;3.38;80.50
7376;BME280;3728;42.266;24.944;2023-04-06T03:54:15;99257.44;;;3.64;81.66
7376;BME280;3728;42.266;24.944;2023-04-06T03:56:43;99255.91;;;3.58;79.89
7376;BME280;3728;42.266;24.944;2023-04-06T03:59:10;99254.31;;;3.41;80.44
7376;BME280;3728;42.266;24.944;2023-04-06T04:01:38;99250.22;;;3.45;79.96
7376;BME280;3728;42.266;24.944;2023-04-06T04:04:06;99251.75;;;3.21;80.13
7376;BME280;3728;42.266;24.944;2023-04-06T04:06:34;99248.63;;;3.09;81.59
7376;BME280;3728;42.266;24.944;2023-04-06T04:09:04;99259.97;;;2.88;82.31
7376;BME280;3728;42.266;24.944;2023-04-06T04:11:31;99251.22;;;3.09;81.01
7376;BME280;3728;42.266;24.944;2023-04-06T04:13:59;99252.00;;;3.10;81.94
7376;BME280;3728;42.266;24.944;2023-04-06T04:16:26;99257.41;;;2.98;82.36
7376;BME280;3728;42.266;24.944;2023-04-06T04:18:55;99263.63;;;3.07;82.87
7376;BME280;3728;42.266;24.944;2023-04-06T04:21:25;99264.44;;;3.13;81.99
7376;BME280;3728;42.266;24.944;2023-04-06T04:23:54;99265.47;;;3.52;80.78
7376;BME280;3728;42.266;24.944;2023-04-06T04:26:22;99265.44;;;3.07;82.15
7376;BME280;3728;42.266;24.944;2023-04-06T04:28:52;99263.38;;;3.19;83.26
7376;BME280;3728;42.266;24.944;2023-04-06T04:31:20;99269.06;;;3.16;82.52
7376;BME280;3728;42.266;24.944;2023-04-06T04:33:54;99250.97;;;3.11;82.92
7376;BME280;3728;42.266;24.944;2023-04-06T04:36:27;99263.66;;;3.37;83.32
7376;BME280;3728;42.266;24.944;2023-04-06T04:38:56;99263.91;;;3.31;83.27
7376;BME280;3728;42.266;24.944;2023-04-06T04:41:24;99275.03;;;3.46;82.59
7376;BME280;3728;42.266;24.944;2023-04-06T04:43:52;99265.97;;;3.54;81.74
7376;BME280;3728;42.266;24.944;2023-04-06T04:46:22;99261.06;;;3.37;83.00
7376;BME280;3728;42.266;24.944;2023-04-06T04:48:51;99268.56;;;3.49;83.82
7376;BME280;3728;42.266;24.944;2023-04-06T04:51:18;99265.75;;;3.51;83.83
7376;BME280;3728;42.266;24.944;2023-04-06T04:54:06;99263.34;;;3.89;82.16
7376;BME280;3728;42.266;24.944;2023-04-06T04:56:34;99267.00;;;3.68;82.47
7376;BME280;3728;42.266;24.944;2023-04-06T04:59:14;99266.50;;;3.71;83.01
7376;BME280;3728;42.266;24.944;2023-04-06T05:01:50;99256.38;;;3.80;83.27
7376;BME280;3728;42.266;24.944;2023-04-06T05:04:28;99259.69;;;4.00;82.16
7376;BME280;3728;42.266;24.944;2023-04-06T05:07:04;99251.69;;;4.02;81.75
7376;BME280;3728;42.266;24.944;2023-04-06T05:09:37;99255.06;;;3.97;82.40
7376;BME280;3728;42.266;24.944;2023-04-06T05:12:05;99257.88;;;4.06;82.03
7376;BME280;3728;42.266;24.944;2023-04-06T05:14:39;99259.38;;;4.27;80.94
7376;BME280;3728;42.266;24.944;2023-04-06T05:17:13;99257.84;;;4.26;80.20
7376;BME280;3728;42.266;24.944;2023-04-06T05:19:41;99258.84;;;4.30;79.71
7376;BME280;3728;42.266;24.944;2023-04-06T05:22:10;99259.34;;;4.42;81.11
7376;BME280;3728;42.266;24.944;2023-04-06T05:24:40;99244.31;;;4.39;79.60
7376;BME280;3728;42.266;24.944;2023-04-06T05:27:09;99249.38;;;4.64;77.93
7376;BME280;3728;42.266;24.944;2023-04-06T05:29:37;99242.69;;;4.53;78.76
7376;BME280;3728;42.266;24.944;2023-04-06T05:32:05;99238.19;;;4.69;77.36
7376;BME280;3728;42.266;24.944;2023-04-06T05:34:34;99243.03;;;4.85;76.46
7376;BME280;3728;42.266;24.944;2023-04-06T05:37:03;99235.81;;;4.77;76.07
7376;BME280;3728;42.266;24.944;2023-04-06T05:39:31;99232.41;;;4.82;76.78
7376;BME280;3728;42.266;24.944;2023-04-06T05:42:03;99232.16;;;4.83;76.65
7376;BME280;3728;42.266;24.944;2023-04-06T05:44:53;99229.38;;;5.09;75.55
7376;BME280;3728;42.266;24.944;2023-04-06T05:47:21;99220.03;;;5.13;74.67
7376;BME280;3728;42.266;24.944;2023-04-06T05:50:01;99223.13;;;5.15;75.43
7376;BME280;3728;42.266;24.944;2023-04-06T05:52:35;99222.03;;;5.21;75.50
7376;BME280;3728;42.266;24.944;2023-04-06T05:55:03;99224.22;;;5.37;75.72
7376;BME280;3728;42.266;24.944;2023-04-06T05:57:31;99226.31;;;5.35;73.62
7376;BME280;3728;42.266;24.944;2023-04-06T05:59:59;99223.06;;;5.25;74.78
7376;BME280;3728;42.266;24.944;2023-04-06T06:02:37;99218.91;;;5.24;74.95
7376;BME280;3728;42.266;24.944;2023-04-06T06:05:09;99218.34;;;5.27;74.93
7376;BME280;3728;42.266;24.944;2023-04-06T06:07:40;99217.81;;;5.30;75.09
7376;BME280;3728;42.266;24.944;2023-04-06T06:10:09;99217.69;;;5.45;75.06
7376;BME280;3728;42.266;24.944;2023-04-06T06:12:37;99215.91;;;5.98;73.30
7376;BME280;3728;42.266;24.944;2023-04-06T06:15:06;99215.63;;;5.99;73.67
7376;BME280;3728;42.266;24.944;2023-04-06T06:17:38;99212.97;;;5.76;73.71
7376;BME280;3728;42.266;24.944;2023-04-06T06:20:06;99212.75;;;5.72;72.61
7376;BME280;3728;42.266;24.944;2023-04-06T06:22:35;99206.94;;;5.80;74.40
7376;BME280;3728;42.266;24.944;2023-04-06T06:25:03;99218.66;;;6.06;71.33
7376;BME280;3728;42.266;24.944;2023-04-06T06:27:30;99216.00;;;6.11;73.38
7376;BME280;3728;42.266;24.944;2023-04-06T06:29:58;99218.72;;;6.01;72.83
7376;BME280;3728;42.266;24.944;2023-04-06T06:32:29;99221.59;;;6.24;73.07
7376;BME280;3728;42.266;24.944;2023-04-06T06:34:58;99223.31;;;6.33;71.68
7376;BME280;3728;42.266;24.944;2023-04-06T06:37:27;99220.84;;;6.42;69.99
7376;BME280;3728;42.266;24.944;2023-04-06T06:39:57;99216.97;;;6.58;70.96
7376;BME280;3728;42.266;24.944;2023-04-06T06:42:25;99222.13;;;6.63;70.57
7376;BME280;3728;42.266;24.944;2023-04-06T06:45:07;99227.47;;;6.71;70.04
7376;BME280;3728;42.266;24.944;2023-04-06T06:47:35;99236.75;;;6.77;68.86
7376;BME280;3728;42.266;24.944;2023-04-06T06:50:04;99222.91;;;6.63;69.56
7376;BME280;3728;42.266;24.944;2023-04-06T06:52:32;99228.66;;;6.79;70.01
7376;BME280;3728;42.266;24.944;2023-04-06T06:55:01;99226.97;;;6.88;70.98
7376;BME280;3728;42.266;24.944;2023-04-06T06:57:29;99232.31;;;7.15;68.97
7376;BME280;3728;42.266;24.944;2023-04-06T06:59:57;99211.34;;;7.07;67.09
7376;BME280;3728;42.266;24.944;2023-04-06T07:02:28;99218.94;;;7.03;67.84
7376;BME280;3728;42.266;24.944;2023-04-06T07:04:55;99216.25;;;7.27;71.13
7376;BME280;3728;42.266;24.944;2023-04-06T07:07:24;99217.38;;;7.21;70.73
7376;BME280;3728;42.266;24.944;2023-04-06T07:09:51;99214.34;;;7.32;68.90
7376;BME280;3728;42.266;24.944;2023-04-06T07:12:19;99211.47;;;7.47;67.17
7376;BME280;3728;42.266;24.944;2023-04-06T07:14:47;99211.69;;;7.51;70.48
7376;BME280;3728;42.266;24.944;2023-04-06T07:17:16;99228.63;;;7.81;66.91
7376;BME280;3728;42.266;24.944;2023-04-06T07:19:43;99216.84;;;7.97;67.07
7376;BME280;3728;42.266;24.944;2023-04-06T07:22:12;99209.72;;;8.02;67.31
7376;BME280;3728;42.266;24.944;2023-04-06T07:24:40;99212.91;;;8.27;67.14
7376;BME280;3728;42.266;24.944;2023-04-06T07:27:08;99210.00;;;8.42;66.13
7376;BME280;3728;42.266;24.944;2023-04-06T07:29:35;99214.16;;;8.43;68.87
7376;BME280;3728;42.266;24.944;2023-04-06T07:32:03;99209.47;;;8.89;61.93
7376;BME280;3728;42.266;24.944;2023-04-06T07:34:32;99208.66;;;8.80;61.60
7376;BME280;3728;42.266;24.944;2023-04-06T07:37:00;99218.91;;;8.76;61.55
7376;BME280;3728;42.266;24.944;2023-04-06T07:39:30;99211.78;;;8.68;60.13
7376;BME280;3728;42.266;24.944;2023-04-06T07:41:58;99211.06;;;8.76;59.20
7376;BME280;3728;42.266;24.944;2023-04-06T07:44:26;99205.44;;;9.05;59.89
7376;BME280;3728;42.266;24.944;2023-04-06T07:46:54;99211.56;;;9.01;58.95
7376;BME280;3728;42.266;24.944;2023-04-06T07:49:22;99204.84;;;9.30;59.44
7376;BME280;3728;42.266;24.944;2023-04-06T07:51:50;99191.84;;;9.17;59.04
7376;BME280;3728;42.266;24.944;2023-04-06T07:54:19;99200.59;;;9.34;59.00
7376;BME280;3728;42.266;24.944;2023-04-06T07:56:47;99196.31;;;9.47;58.13
7376;BME280;3728;42.266;24.944;2023-04-06T07:59:14;99198.88;;;9.60;58.86
7376;BME280;3728;42.266;24.944;2023-04-06T08:01:42;99214.69;;;9.95;56.74
7376;BME280;3728;42.266;24.944;2023-04-06T08:04:10;99219.25;;;10.11;56.75
7376;BME280;3728;42.266;24.944;2023-04-06T08:06:38;99213.63;;;10.26;57.22
7376;BME280;3728;42.266;24.944;2023-04-06T08:09:07;99210.38;;;10.29;53.72
7376;BME280;3728;42.266;24.944;2023-04-06T08:11:35;99203.13;;;10.26;55.08
7376;BME280;3728;42.266;24.944;2023-04-06T08:14:02;99206.69;;;10.30;54.19
7376;BME280;3728;42.266;24.944;2023-04-06T08:16:30;99203.47;;;10.34;54.35
7376;BME280;3728;42.266;24.944;2023-04-06T08:18:57;99202.06;;;10.27;53.29
7376;BME280;3728;42.266;24.944;2023-04-06T08:21:25;99201.44;;;10.22;54.09
7376;BME280;3728;42.266;24.944;2023-04-06T08:23:52;99197.31;;;10.38;52.67
7376;BME280;3728;42.266;24.944;2023-04-06T08:26:20;99191.78;;;10.65;52.74
7376;BME280;3728;42.266;24.944;2023-04-06T08:28:47;99210.25;;;10.60;54.27
7376;BME280;3728;42.266;24.944;2023-04-06T08:31:15;99203.34;;;10.81;52.49
7376;BME280;3728;42.266;24.944;2023-04-06T08:33:43;99203.03;;;10.91;52.49
7376;BME280;3728;42.266;24.944;2023-04-06T08:36:13;99207.78;;;11.24;52.95
7376;BME280;3728;42.266;24.944;2023-04-06T08:38:41;99202.81;;;11.39;52.76
7376;BME280;3728;42.266;24.944;2023-04-06T08:41:13;99199.53;;;11.59;49.55
7376;BME280;3728;42.266;24.944;2023-04-06T08:46:11;99191.59;;;11.22;51.88
7376;BME280;3728;42.266;24.944;2023-04-06T08:48:40;99191.81;;;11.54;50.47
7376;BME280;3728;42.266;24.944;2023-04-06T08:51:09;99196.19;;;11.33;50.62
7376;BME280;3728;42.266;24.944;2023-04-06T08:53:38;99182.09;;;11.55;52.62
7376;BME280;3728;42.266;24.944;2023-04-06T08:56:06;99180.09;;;11.60;53.58
7376;BME280;3728;42.266;24.944;2023-04-06T08:58:35;99183.31;;;11.75;51.02
7376;BME280;3728;42.266;24.944;2023-04-06T09:01:11;99178.91;;;11.87;48.53
7376;BME280;3728;42.266;24.944;2023-04-06T09:03:42;99176.50;;;11.74;49.26
7376;BME280;3728;42.266;24.944;2023-04-06T09:06:11;99177.56;;;11.81;50.51
7376;BME280;3728;42.266;24.944;2023-04-06T09:08:41;99174.31;;;11.84;50.16
7376;BME280;3728;42.266;24.944;2023-04-06T09:11:09;99174.00;;;12.15;51.87
7376;BME280;3728;42.266;24.944;2023-04-06T09:13:54;99167.28;;;12.26;49.04
7376;BME280;3728;42.266;24.944;2023-04-06T09:16:23;99164.91;;;12.12;48.22
7376;BME280;3728;42.266;24.944;2023-04-06T09:18:50;99159.56;;;12.00;52.21
7376;BME280;3728;42.266;24.944;2023-04-06T09:21:19;99159.53;;;12.29;50.93
7376;BME280;3728;42.266;24.944;2023-04-06T09:24:00;99155.56;;;12.44;51.16
7376;BME280;3728;42.266;24.944;2023-04-06T09:26:30;99144.50;;;12.59;50.29
7376;BME280;3728;42.266;24.944;2023-04-06T09:29:00;99146.41;;;12.50;50.60
7376;BME280;3728;42.266;24.944;2023-04-06T09:31:30;99156.47;;;12.69;49.20
7376;BME280;3728;42.266;24.944;2023-04-06T09:34:01;99148.53;;;12.36;49.73
7376;BME280;3728;42.266;24.944;2023-04-06T09:36:33;99139.56;;;12.37;51.94
7376;BME280;3728;42.266;24.944;2023-04-06T09:39:03;99143.78;;;13.03;50.78
7376;BME280;3728;42.266;24.944;2023-04-06T09:41:35;99127.31;;;12.94;51.76
7376;BME280;3728;42.266;24.944;2023-04-06T09:44:07;99141.16;;;13.03;52.37
7376;BME280;3728;42.266;24.944;2023-04-06T09:46:38;99137.59;;;13.20;49.14
7376;BME280;3728;42.266;24.944;2023-04-06T09:49:27;99134.34;;;13.23;49.82
7376;BME280;3728;42.266;24.944;2023-04-06T09:52:06;99129.94;;;13.27;47.51
7376;BME280;3728;42.266;24.944;2023-04-06T09:54:35;99128.22;;;12.98;49.98
7376;BME280;3728;42.266;24.944;2023-04-06T10:00:08;99127.13;;;13.44;52.61
7376;BME280;3728;42.266;24.944;2023-04-06T10:02:55;99127.03;;;13.53;50.69
7376;BME280;3728;42.266;24.944;2023-04-06T10:05:35;99119.34;;;13.72;52.55
7376;BME280;3728;42.266;24.944;2023-04-06T10:08:14;99131.72;;;14.08;47.80
7376;BME280;3728;42.266;24.944;2023-04-06T10:10:42;99132.50;;;13.96;45.89
7376;BME280;3728;42.266;24.944;2023-04-06T10:13:11;99112.88;;;13.82;46.56
7376;BME280;3728;42.266;24.944;2023-04-06T10:15:39;99118.72;;;13.75;46.75
7376;BME280;3728;42.266;24.944;2023-04-06T10:18:08;99119.34;;;13.96;46.37
7376;BME280;3728;42.266;24.944;2023-04-06T10:20:43;99116.16;;;13.91;48.07
7376;BME280;3728;42.266;24.944;2023-04-06T10:23:45;99110.84;;;14.27;44.88
7376;BME280;3728;42.266;24.944;2023-04-06T10:26:15;99110.97;;;14.58;45.29
7376;BME280;3728;42.266;24.944;2023-04-06T10:28:48;99106.69;;;14.54;46.04
7376;BME280;3728;42.266;24.944;2023-04-06T10:31:24;99100.59;;;14.50;45.43
7376;BME280;3728;42.266;24.944;2023-04-06T10:33:56;99095.13;;;14.43;47.08
7376;BME280;3728;42.266;24.944;2023-04-06T10:36:31;99100.00;;;14.16;46.79
7376;BME280;3728;42.266;24.944;2023-04-06T10:39:02;99091.31;;;14.16;48.31
7376;BME280;3728;42.266;24.944;2023-04-06T10:41:36;99090.44;;;14.12;46.26
7376;BME280;3728;42.266;24.944;2023-04-06T10:44:24;99091.00;;;14.17;45.53
7376;BME280;3728;42.266;24.944;2023-04-06T10:46:56;99088.25;;;14.54;46.04
7376;BME280;3728;42.266;24.944;2023-04-06T10:49:28;99084.66;;;14.74;44.79
7376;BME280;3728;42.266;24.944;2023-04-06T10:51:56;99079.88;;;15.07;43.99
7376;BME280;3728;42.266;24.944;2023-04-06T10:54:26;99069.50;;;15.14;46.45
7376;BME280;3728;42.266;24.944;2023-04-06T10:56:55;99085.66;;;15.13;44.72
7376;BME280;3728;42.266;24.944;2023-04-06T10:59:23;99074.25;;;15.08;42.94
7376;BME280;3728;42.266;24.944;2023-04-06T11:01:51;99073.47;;;15.08;45.37
7376;BME280;3728;42.266;24.944;2023-04-06T11:04:21;99064.66;;;15.47;46.65
7376;BME280;3728;42.266;24.944;2023-04-06T11:06:50;99067.56;;;15.77;40.83
7376;BME280;3728;42.266;24.944;2023-04-06T11:09:27;99066.59;;;15.85;42.16
7376;BME280;3728;42.266;24.944;2023-04-06T11:11:58;99060.16;;;15.83;41.61
7376;BME280;3728;42.266;24.944;2023-04-06T11:14:25;99054.59;;;15.68;43.16
7376;BME280;3728;42.266;24.944;2023-04-06T11:16:53;99050.28;;;15.80;44.17
7376;BME280;3728;42.266;24.944;2023-04-06T11:19:21;99054.19;;;15.86;42.98
7376;BME280;3728;42.266;24.944;2023-04-06T11:21:49;99051.28;;;15.91;43.52
7376;BME280;3728;42.266;24.944;2023-04-06T11:24:19;99061.03;;;16.25;40.77
7376;BME280;3728;42.266;24.944;2023-04-06T11:26:50;99044.59;;;16.16;42.10
7376;BME280;3728;42.266;24.944;2023-04-06T11:29:21;99043.56;;;16.59;41.44
7376;BME280;3728;42.266;24.944;2023-04-06T11:31:58;99049.06;;;16.69;41.64
7376;BME280;3728;42.266;24.944;2023-04-06T11:34:33;99038.53;;;16.73;41.57
7376;BME280;3728;42.266;24.944;2023-04-06T11:37:10;99038.63;;;16.57;41.62
7376;BME280;3728;42.266;24.944;2023-04-06T11:42:35;99033.34;;;16.38;37.54
7376;BME280;3728;42.266;24.944;2023-04-06T11:45:03;99034.03;;;16.16;38.47
7376;BME280;3728;42.266;24.944;2023-04-06T11:47:36;99034.16;;;16.42;38.00
7376;BME280;3728;42.266;24.944;2023-04-06T11:50:12;99030.47;;;16.47;42.78
7376;BME280;3728;42.266;24.944;2023-04-06T11:52:41;99035.34;;;16.64;35.16
7376;BME280;3728;42.266;24.944;2023-04-06T11:55:14;99022.72;;;16.34;36.34
7376;BME280;3728;42.266;24.944;2023-04-06T11:57:43;99025.81;;;16.40;38.49
7376;BME280;3728;42.266;24.944;2023-04-06T12:00:12;99021.59;;;16.35;39.03
7376;BME280;3728;42.266;24.944;2023-04-06T12:02:45;99035.63;;;16.59;37.63
7376;BME280;3728;42.266;24.944;2023-04-06T12:05:14;99019.88;;;16.24;37.08
7376;BME280;3728;42.266;24.944;2023-04-06T12:07:42;99014.94;;;16.22;37.34
7376;BME280;3728;42.266;24.944;2023-04-06T12:10:09;99018.03;;;16.28;35.58
7376;BME280;3728;42.266;24.944;2023-04-06T12:12:37;99019.03;;;16.20;36.85
7376;BME280;3728;42.266;24.944;2023-04-06T12:15:05;99018.19;;;16.35;38.50
7376;BME280;3728;42.266;24.944;2023-04-06T12:17:33;99019.31;;;16.53;35.20
7376;BME280;3728;42.266;24.944;2023-04-06T12:20:01;99016.03;;;16.21;35.28
7376;BME280;3728;42.266;24.944;2023-04-06T12:22:43;99015.63;;;16.19;35.44
7376;BME280;3728;42.266;24.944;2023-04-06T12:25:11;99013.25;;;15.95;36.32
7376;BME280;3728;42.266;24.944;2023-04-06T12:27:38;99018.75;;;15.87;36.64
7376;BME280;3728;42.266;24.944;2023-04-06T12:30:07;99001.97;;;15.60;37.21
7376;BME280;3728;42.266;24.944;2023-04-06T12:32:35;99003.38;;;15.92;35.46
7376;BME280;3728;42.266;24.944;2023-04-06T12:35:03;99005.28;;;15.92;37.31
7376;BME280;3728;42.266;24.944;2023-04-06T12:37:30;98993.16;;;15.71;34.87
7376;BME280;3728;42.266;24.944;2023-04-06T12:39:58;98994.34;;;15.74;35.94
7376;BME280;3728;42.266;24.944;2023-04-06T12:42:26;99002.00;;;15.79;34.85
7376;BME280;3728;42.266;24.944;2023-04-06T12:44:54;98996.78;;;15.83;35.63
7376;BME280;3728;42.266;24.944;2023-04-06T12:47:22;98992.81;;;15.23;35.91
7376;BME280;3728;42.266;24.944;2023-04-06T12:49:49;98989.78;;;14.74;37.47
7376;BME280;3728;42.266;24.944;2023-04-06T12:52:17;98989.69;;;15.01;36.43
7376;BME280;3728;42.266;24.944;2023-04-06T12:54:45;98985.81;;;15.46;36.66
7376;BME280;3728;42.266;24.944;2023-04-06T12:57:16;98982.41;;;15.45;36.48
7376;BME280;3728;42.266;24.944;2023-04-06T12:59:43;98981.53;;;15.57;36.74
7376;BME280;3728;42.266;24.944;2023-04-06T13:02:11;98977.53;;;15.63;35.43
7376;BME280;3728;42.266;24.944;2023-04-06T13:04:39;98978.50;;;15.74;36.79
7376;BME280;3728;42.266;24.944;2023-04-06T13:07:07;98977.16;;;15.64;37.17
7376;BME280;3728;42.266;24.944;2023-04-06T13:09:34;98981.53;;;15.57;36.68
7376;BME280;3728;42.266;24.944;2023-04-06T13:12:02;98976.28;;;15.41;37.85
7376;BME280;3728;42.266;24.944;2023-04-06T13:14:30;98967.22;;;15.07;39.22
7376;BME280;3728;42.266;24.944;2023-04-06T13:16:58;98988.25;;;15.04;37.78
7376;BME280;3728;42.266;24.944;2023-04-06T13:19:26;98960.88;;;14.93;37.11
7376;BME280;3728;42.266;24.944;2023-04-06T13:21:54;98968.41;;;14.48;38.79
7376;BME280;3728;42.266;24.944;2023-04-06T13:24:21;98956.16;;;14.12;39.59
7376;BME280;3728;42.266;24.944;2023-04-06T13:26:49;98962.63;;;14.14;39.41
7376;BME280;3728;42.266;24.944;2023-04-06T13:29:17;98972.63;;;13.81;41.53
7376;BME280;3728;42.266;24.944;2023-04-06T13:31:45;98963.13;;;13.64;41.86
7376;BME280;3728;42.266;24.944;2023-04-06T13:34:12;98953.94;;;13.58;41.90
7376;BME280;3728;42.266;24.944;2023-04-06T13:36:40;98951.97;;;13.55;41.23
7376;BME280;3728;42.266;24.944;2023-04-06T13:39:09;98953.50;;;13.56;40.24
7376;BME280;3728;42.266;24.944;2023-04-06T13:41:36;98954.38;;;13.60;41.19
7376;BME280;3728;42.266;24.944;2023-04-06T13:44:04;98953.41;;;13.41;41.63